sensor_id;sensor_type;location;lat;lon;timestamp;pressure;altitude;pressure_sealevel;temperature;humidity
39301;BME280;25019;42.626;23.380;2022-07-18T00:00:31;95048.06;;;17.92;47.31
39301;BME280;25019;42.626;23.380;2022-07-18T00:02:57;95112.31;;;18.34;47.52
39301;BME280;25019;42.626;23.380;2022-07-18T00:05:23;95115.34;;;18.27;47.56
39301;BME280;25019;42.626;23.380;2022-07-18T00:07:48;95105.97;;;18.19;47.73
39301;BME280;25019;42.626;23.380;2022-07-18T00:10:14;95106.50;;;18.21;47.98
39301;BME280;25019;42.626;23.380;2022-07-18T00:12:40;95056.72;;;17.84;47.58
39301;BME280;25019;42.626;23.380;2022-07-18T00:15:06;95110.53;;;18.19;47.46
39301;BME280;25019;42.626;23.380;2022-07-18T00:17:32;95110.31;;;18.15;47.88
39301;BME280;25019;42.626;23.380;2022-07-18T00:19:58;95037.44;;;17.72;47.61
39301;BME280;25019;42.626;23.380;2022-07-18T00:22:24;95100.66;;;18.09;47.77
39301;BME280;25019;42.626;23.380;2022-07-18T00:24:49;95029.72;;;17.60;48.06
39301;BME280;25019;42.626;23.380;2022-07-18T00:27:15;95089.13;;;17.98;47.28
39301;BME280;25019;42.626;23.380;2022-07-18T00:29:40;95108.75;;;18.04;47.93
39301;BME280;25019;42.626;23.380;2022-07-18T00:32:07;95104.75;;;18.01;47.42
39301;BME280;25019;42.626;23.380;2022-07-18T00:34:33;95101.25;;;17.95;47.30
39301;BME280;25019;42.626;23.380;2022-07-18T00:36:59;95042.13;;;17.50;48.10
39301;BME280;25019;42.626;23.380;2022-07-18T00:39:25;95106.59;;;18.01;48.21
39301;BME280;25019;42.626;23.380;2022-07-18T00:41:51;95097.47;;;18.02;48.04
39301;BME280;25019;42.626;23.380;2022-07-18T00:44:22;95093.72;;;17.97;47.96
39301;BME280;25019;42.626;23.380;2022-07-18T00:46:50;95097.75;;;17.95;47.69
39301;BME280;25019;42.626;23.380;2022-07-18T00:49:16;95108.78;;;17.93;47.51
39301;BME280;25019;42.626;23.380;2022-07-18T00:51:42;95109.34;;;17.90;47.57
39301;BME280;25019;42.626;23.380;2022-07-18T00:54:07;95097.03;;;17.79;47.88
39301;BME280;25019;42.626;23.380;2022-07-18T00:56:33;95099.75;;;17.74;47.75
39301;BME280;25019;42.626;23.380;2022-07-18T00:58:59;95049.69;;;17.38;47.80
39301;BME280;25019;42.626;23.380;2022-07-18T01:01:25;95105.66;;;17.76;47.66
39301;BME280;25019;42.626;23.380;2022-07-18T01:06:39;95101.41;;;17.64;47.58
39301;BME280;25019;42.626;23.380;2022-07-18T01:09:05;95117.78;;;17.63;47.29
39301;BME280;25019;42.626;23.380;2022-07-18T01:11:32;95095.56;;;17.47;47.22
39301;BME280;25019;42.626;23.380;2022-07-18T01:14:00;95115.69;;;17.55;47.08
39301;BME280;25019;42.626;23.380;2022-07-18T01:16:26;95106.31;;;17.47;47.36
39301;BME280;25019;42.626;23.380;2022-07-18T01:18:51;95097.75;;;17.40;47.66
39301;BME280;25019;42.626;23.380;2022-07-18T01:21:17;95099.38;;;17.41;47.48
39301;BME280;25019;42.626;23.380;2022-07-18T01:23:44;95109.00;;;17.47;47.36
39301;BME280;25019;42.626;23.380;2022-07-18T01:26:12;95059.16;;;17.15;47.79
39301;BME280;25019;42.626;23.380;2022-07-18T01:28:39;95089.72;;;17.34;47.31
39301;BME280;25019;42.626;23.380;2022-07-18T01:31:05;95101.78;;;17.42;46.88
39301;BME280;25019;42.626;23.380;2022-07-18T01:33:32;95103.38;;;17.38;45.74
39301;BME280;25019;42.626;23.380;2022-07-18T01:35:59;95101.78;;;17.37;44.27
39301;BME280;25019;42.626;23.380;2022-07-18T01:38:27;95103.69;;;17.36;44.50
39301;BME280;25019;42.626;23.380;2022-07-18T01:40:53;95102.31;;;17.34;43.24
39301;BME280;25019;42.626;23.380;2022-07-18T01:43:19;95100.72;;;17.33;42.75
39301;BME280;25019;42.626;23.380;2022-07-18T01:45:44;95025.69;;;16.91;42.01
39301;BME280;25019;42.626;23.380;2022-07-18T01:48:10;95076.88;;;17.21;41.50
39301;BME280;25019;42.626;23.380;2022-07-18T01:50:36;95086.50;;;17.32;41.82
39301;BME280;25019;42.626;23.380;2022-07-18T01:53:01;95091.34;;;17.30;41.55
39301;BME280;25019;42.626;23.380;2022-07-18T01:55:27;95086.81;;;17.26;41.05
39301;BME280;25019;42.626;23.380;2022-07-18T01:57:52;95085.72;;;17.27;41.42
39301;BME280;25019;42.626;23.380;2022-07-18T02:00:18;95095.38;;;17.28;41.97
39301;BME280;25019;42.626;23.380;2022-07-18T02:02:43;94980.19;;;16.55;42.14
39301;BME280;25019;42.626;23.380;2022-07-18T02:05:09;95017.94;;;16.85;41.72
39301;BME280;25019;42.626;23.380;2022-07-18T02:07:37;95019.56;;;16.81;42.12
39301;BME280;25019;42.626;23.380;2022-07-18T02:10:18;95099.94;;;17.27;43.34
39301;BME280;25019;42.626;23.380;2022-07-18T02:12:44;95039.41;;;16.85;43.61
39301;BME280;25019;42.626;23.380;2022-07-18T02:15:11;95097.00;;;17.18;43.24
39301;BME280;25019;42.626;23.380;2022-07-18T02:17:38;95098.63;;;17.14;43.43
39301;BME280;25019;42.626;23.380;2022-07-18T02:20:08;95097.03;;;17.03;43.89
39301;BME280;25019;42.626;23.380;2022-07-18T02:22:35;95093.56;;;17.02;44.43
39301;BME280;25019;42.626;23.380;2022-07-18T02:25:00;95102.69;;;16.96;44.21
39301;BME280;25019;42.626;23.380;2022-07-18T02:27:26;95092.50;;;16.72;45.59
39301;BME280;25019;42.626;23.380;2022-07-18T02:29:52;95098.94;;;16.66;45.36
39301;BME280;25019;42.626;23.380;2022-07-18T02:32:18;95118.25;;;16.63;46.03
39301;BME280;25019;42.626;23.380;2022-07-18T02:34:44;95119.59;;;16.50;46.19
39301;BME280;25019;42.626;23.380;2022-07-18T02:37:10;95001.59;;;15.62;46.04
39301;BME280;25019;42.626;23.380;2022-07-18T02:39:36;95119.84;;;16.33;46.39
39301;BME280;25019;42.626;23.380;2022-07-18T02:42:02;95117.44;;;16.26;46.49
39301;BME280;25019;42.626;23.380;2022-07-18T02:44:28;95124.41;;;16.27;46.29
39301;BME280;25019;42.626;23.380;2022-07-18T02:46:53;95127.38;;;16.26;46.15
39301;BME280;25019;42.626;23.380;2022-07-18T02:49:19;95121.19;;;16.25;46.01
39301;BME280;25019;42.626;23.380;2022-07-18T02:51:56;95135.94;;;16.33;45.62
39301;BME280;25019;42.626;23.380;2022-07-18T02:54:22;95133.78;;;16.35;45.61
39301;BME280;25019;42.626;23.380;2022-07-18T02:56:48;95120.13;;;16.31;44.87
39301;BME280;25019;42.626;23.380;2022-07-18T02:59:14;95135.16;;;16.43;44.37
39301;BME280;25019;42.626;23.380;2022-07-18T03:01:40;95101.09;;;16.28;43.72
39301;BME280;25019;42.626;23.380;2022-07-18T03:04:05;95128.16;;;16.47;43.13
39301;BME280;25019;42.626;23.380;2022-07-18T03:06:31;95107.28;;;16.33;42.20
39301;BME280;25019;42.626;23.380;2022-07-18T03:08:57;95077.22;;;16.21;42.51
39301;BME280;25019;42.626;23.380;2022-07-18T03:11:22;95077.50;;;16.09;43.17
39301;BME280;25019;42.626;23.380;2022-07-18T03:13:48;95140.75;;;16.31;44.63
39301;BME280;25019;42.626;23.380;2022-07-18T03:16:14;95150.28;;;15.85;46.02
39301;BME280;25019;42.626;23.380;2022-07-18T03:18:39;95142.25;;;15.85;45.24
39301;BME280;25019;42.626;23.380;2022-07-18T03:21:05;95139.81;;;15.79;45.55
39301;BME280;25019;42.626;23.380;2022-07-18T03:23:30;95137.94;;;15.74;45.85
39301;BME280;25019;42.626;23.380;2022-07-18T03:25:57;95133.94;;;15.82;45.75
39301;BME280;25019;42.626;23.380;2022-07-18T03:28:23;95130.97;;;15.83;45.88
39301;BME280;25019;42.626;23.380;2022-07-18T03:30:49;95132.06;;;15.82;45.92
39301;BME280;25019;42.626;23.380;2022-07-18T03:33:14;95107.34;;;15.60;46.28
39301;BME280;25019;42.626;23.380;2022-07-18T03:35:40;95042.63;;;14.99;46.68
39301;BME280;25019;42.626;23.380;2022-07-18T03:38:05;95140.53;;;15.58;46.37
39301;BME280;25019;42.626;23.380;2022-07-18T03:40:31;95144.84;;;15.65;46.47
39301;BME280;25019;42.626;23.380;2022-07-18T03:42:57;95140.19;;;16.08;46.38
39301;BME280;25019;42.626;23.380;2022-07-18T03:45:23;95137.28;;;16.56;45.32
39301;BME280;25019;42.626;23.380;2022-07-18T03:47:48;95141.31;;;17.05;43.64
39301;BME280;25019;42.626;23.380;2022-07-18T03:50:14;95124.03;;;17.48;42.20
39301;BME280;25019;42.626;23.380;2022-07-18T03:52:40;95151.41;;;18.16;40.23
39301;BME280;25019;42.626;23.380;2022-07-18T03:55:06;95131.94;;;18.39;40.58
39301;BME280;25019;42.626;23.380;2022-07-18T03:57:32;95152.22;;;18.96;39.81
39301;BME280;25019;42.626;23.380;2022-07-18T03:59:57;95148.78;;;19.44;38.85
39301;BME280;25019;42.626;23.380;2022-07-18T04:02:23;95099.84;;;19.61;37.90
39301;BME280;25019;42.626;23.380;2022-07-18T04:04:48;95043.75;;;19.82;37.12
39301;BME280;25019;42.626;23.380;2022-07-18T04:07:14;95144.41;;;21.06;36.17
39301;BME280;25019;42.626;23.380;2022-07-18T04:09:39;95141.00;;;21.62;35.09
39301;BME280;25019;42.626;23.380;2022-07-18T04:12:05;95137.97;;;22.05;35.71
39301;BME280;25019;42.626;23.380;2022-07-18T04:14:31;95145.06;;;22.52;34.72
39301;BME280;25019;42.626;23.380;2022-07-18T04:16:56;95148.97;;;23.05;33.85
39301;BME280;25019;42.626;23.380;2022-07-18T04:19:22;95142.47;;;23.46;32.78
39301;BME280;25019;42.626;23.380;2022-07-18T04:21:53;95115.00;;;23.79;32.01
39301;BME280;25019;42.626;23.380;2022-07-18T04:24:19;95116.09;;;24.28;32.20
39301;BME280;25019;42.626;23.380;2022-07-18T04:26:44;95105.53;;;24.52;32.02
39301;BME280;25019;42.626;23.380;2022-07-18T04:29:10;95130.56;;;25.11;30.85
39301;BME280;25019;42.626;23.380;2022-07-18T04:31:37;95123.94;;;25.38;30.04
39301;BME280;25019;42.626;23.380;2022-07-18T04:34:06;95119.97;;;25.75;30.32
39301;BME280;25019;42.626;23.380;2022-07-18T04:36:31;95125.03;;;25.85;30.92
39301;BME280;25019;42.626;23.380;2022-07-18T04:38:57;95120.22;;;25.82;31.17
39301;BME280;25019;42.626;23.380;2022-07-18T04:41:22;95084.88;;;25.82;30.68
39301;BME280;25019;42.626;23.380;2022-07-18T04:43:51;95076.34;;;25.92;29.96
39301;BME280;25019;42.626;23.380;2022-07-18T04:46:17;95114.00;;;26.54;29.68
39301;BME280;25019;42.626;23.380;2022-07-18T04:48:43;95067.59;;;26.50;29.78
39301;BME280;25019;42.626;23.380;2022-07-18T04:51:09;95118.03;;;26.69;29.96
39301;BME280;25019;42.626;23.380;2022-07-18T04:53:34;95120.13;;;27.05;29.77
39301;BME280;25019;42.626;23.380;2022-07-18T04:56:00;95117.75;;;27.50;29.30
39301;BME280;25019;42.626;23.380;2022-07-18T04:58:25;95125.59;;;27.64;29.04
39301;BME280;25019;42.626;23.380;2022-07-18T05:00:51;95131.97;;;27.93;28.40
39301;BME280;25019;42.626;23.380;2022-07-18T05:03:16;95119.81;;;28.15;27.58
39301;BME280;25019;42.626;23.380;2022-07-18T05:05:42;95115.13;;;28.16;27.83
39301;BME280;25019;42.626;23.380;2022-07-18T05:08:08;95122.94;;;28.30;27.52
39301;BME280;25019;42.626;23.380;2022-07-18T05:10:33;95120.00;;;28.35;28.26
39301;BME280;25019;42.626;23.380;2022-07-18T05:12:59;95105.34;;;28.15;27.79
39301;BME280;25019;42.626;23.380;2022-07-18T05:15:25;95116.22;;;28.39;27.18
39301;BME280;25019;42.626;23.380;2022-07-18T05:17:52;95117.97;;;28.60;26.73
39301;BME280;25019;42.626;23.380;2022-07-18T05:20:20;95119.63;;;28.77;26.75
39301;BME280;25019;42.626;23.380;2022-07-18T05:22:46;95119.94;;;28.88;26.39
39301;BME280;25019;42.626;23.380;2022-07-18T05:25:12;95122.69;;;29.04;26.39
39301;BME280;25019;42.626;23.380;2022-07-18T05:27:39;95120.97;;;29.28;26.29
39301;BME280;25019;42.626;23.380;2022-07-18T05:30:06;95130.47;;;29.47;26.11
39301;BME280;25019;42.626;23.380;2022-07-18T05:32:33;95126.84;;;29.58;26.11
39301;BME280;25019;42.626;23.380;2022-07-18T05:34:58;95129.66;;;29.78;26.48
39301;BME280;25019;42.626;23.380;2022-07-18T05:37:24;95124.16;;;29.94;26.46
39301;BME280;25019;42.626;23.380;2022-07-18T05:39:50;95118.69;;;29.94;25.70
39301;BME280;25019;42.626;23.380;2022-07-18T05:42:17;95129.00;;;30.17;26.16
39301;BME280;25019;42.626;23.380;2022-07-18T05:44:43;95097.00;;;30.21;25.12
39301;BME280;25019;42.626;23.380;2022-07-18T05:47:09;95085.72;;;30.23;25.29
39301;BME280;25019;42.626;23.380;2022-07-18T05:49:35;95130.84;;;30.64;25.06
39301;BME280;25019;42.626;23.380;2022-07-18T05:52:01;95122.16;;;30.82;24.90
39301;BME280;25019;42.626;23.380;2022-07-18T05:54:26;95066.53;;;30.42;25.15
39301;BME280;25019;42.626;23.380;2022-07-18T05:56:52;95034.88;;;30.06;25.18
39301;BME280;25019;42.626;23.380;2022-07-18T05:59:21;95119.97;;;30.32;24.77
39301;BME280;25019;42.626;23.380;2022-07-18T06:01:47;95129.47;;;30.74;25.22
39301;BME280;25019;42.626;23.380;2022-07-18T06:04:12;95125.69;;;30.83;24.28
39301;BME280;25019;42.626;23.380;2022-07-18T06:06:38;95060.31;;;30.26;23.37
39301;BME280;25019;42.626;23.380;2022-07-18T06:09:04;95135.50;;;30.09;21.67
39301;BME280;25019;42.626;23.380;2022-07-18T06:11:30;95049.69;;;29.05;22.93
39301;BME280;25019;42.626;23.380;2022-07-18T06:13:56;95103.47;;;29.00;22.78
39301;BME280;25019;42.626;23.380;2022-07-18T06:16:22;95124.75;;;29.07;23.05
39301;BME280;25019;42.626;23.380;2022-07-18T06:18:48;95100.53;;;28.93;22.29
39301;BME280;25019;42.626;23.380;2022-07-18T06:21:13;95130.38;;;28.98;22.71
39301;BME280;25019;42.626;23.380;2022-07-18T06:23:39;95111.72;;;28.88;23.04
39301;BME280;25019;42.626;23.380;2022-07-18T06:26:05;94960.34;;;27.38;23.92
39301;BME280;25019;42.626;23.380;2022-07-18T06:28:31;95050.84;;;28.18;24.18
39301;BME280;25019;42.626;23.380;2022-07-18T06:30:57;95047.53;;;28.25;24.65
39301;BME280;25019;42.626;23.380;2022-07-18T06:33:23;95124.09;;;27.91;24.39
39301;BME280;25019;42.626;23.380;2022-07-18T06:35:49;94955.66;;;25.76;25.62
39301;BME280;25019;42.626;23.380;2022-07-18T06:38:15;95111.56;;;26.19;25.78
39301;BME280;25019;42.626;23.380;2022-07-18T06:40:42;95044.16;;;25.94;26.34
39301;BME280;25019;42.626;23.380;2022-07-18T06:43:08;95084.88;;;26.33;25.25
39301;BME280;25019;42.626;23.380;2022-07-18T06:45:34;95037.25;;;25.97;24.83
39301;BME280;25019;42.626;23.380;2022-07-18T06:48:00;95045.69;;;26.04;25.72
39301;BME280;25019;42.626;23.380;2022-07-18T06:50:25;95110.44;;;26.83;24.91
39301;BME280;25019;42.626;23.380;2022-07-18T06:52:52;95073.31;;;26.15;24.46
39301;BME280;25019;42.626;23.380;2022-07-18T06:55:18;95112.03;;;26.21;24.82
39301;BME280;25019;42.626;23.380;2022-07-18T06:57:44;94973.72;;;25.50;24.81
39301;BME280;25019;42.626;23.380;2022-07-18T07:00:12;95099.78;;;26.06;25.69
39301;BME280;25019;42.626;23.380;2022-07-18T07:02:48;95055.34;;;24.94;27.05
39301;BME280;25019;42.626;23.380;2022-07-18T07:05:17;95073.41;;;24.63;26.55
39301;BME280;25019;42.626;23.380;2022-07-18T07:07:43;95090.81;;;23.92;27.24
39301;BME280;25019;42.626;23.380;2022-07-18T07:10:10;95105.16;;;23.92;27.86
39301;BME280;25019;42.626;23.380;2022-07-18T07:12:49;94984.81;;;22.95;27.92
39301;BME280;25019;42.626;23.380;2022-07-18T07:15:19;95039.09;;;23.22;27.69
39301;BME280;25019;42.626;23.380;2022-07-18T07:17:45;95092.72;;;23.42;28.18
39301;BME280;25019;42.626;23.380;2022-07-18T07:20:11;95023.06;;;23.02;27.82
39301;BME280;25019;42.626;23.380;2022-07-18T07:22:45;95062.28;;;23.05;28.83
39301;BME280;25019;42.626;23.380;2022-07-18T07:25:11;94989.72;;;22.84;28.51
39301;BME280;25019;42.626;23.380;2022-07-18T07:27:37;95053.13;;;23.24;29.17
39301;BME280;25019;42.626;23.380;2022-07-18T07:30:03;94956.44;;;22.93;28.47
39301;BME280;25019;42.626;23.380;2022-07-18T07:32:34;95111.44;;;23.61;28.54
39301;BME280;25019;42.626;23.380;2022-07-18T07:34:59;95043.69;;;23.61;27.75
39301;BME280;25019;42.626;23.380;2022-07-18T07:37:25;95100.28;;;24.21;28.15
39301;BME280;25019;42.626;23.380;2022-07-18T07:39:51;95106.03;;;24.46;29.11
39301;BME280;25019;42.626;23.380;2022-07-18T07:42:16;95113.22;;;24.33;28.76
39301;BME280;25019;42.626;23.380;2022-07-18T07:44:42;94937.44;;;23.24;28.21
39301;BME280;25019;42.626;23.380;2022-07-18T07:47:08;95029.56;;;24.17;27.90
39301;BME280;25019;42.626;23.380;2022-07-18T07:49:33;95093.25;;;24.37;28.56
39301;BME280;25019;42.626;23.380;2022-07-18T07:52:00;95109.66;;;23.97;28.99
39301;BME280;25019;42.626;23.380;2022-07-18T07:54:26;95108.97;;;23.83;30.25
39301;BME280;25019;42.626;23.380;2022-07-18T07:56:51;94927.13;;;22.95;28.88
39301;BME280;25019;42.626;23.380;2022-07-18T07:59:17;95088.03;;;23.66;29.41
39301;BME280;25019;42.626;23.380;2022-07-18T08:01:43;95060.88;;;23.16;29.70
39301;BME280;25019;42.626;23.380;2022-07-18T08:04:09;94868.47;;;22.00;28.70
39301;BME280;25019;42.626;23.380;2022-07-18T08:06:34;95123.97;;;23.08;29.78
39301;BME280;25019;42.626;23.380;2022-07-18T08:09:00;95080.56;;;22.45;29.48
39301;BME280;25019;42.626;23.380;2022-07-18T08:11:26;95124.97;;;22.44;29.55
39301;BME280;25019;42.626;23.380;2022-07-18T08:13:52;95116.53;;;22.45;29.75
39301;BME280;25019;42.626;23.380;2022-07-18T08:16:19;95106.00;;;22.07;29.75
39301;BME280;25019;42.626;23.380;2022-07-18T08:18:45;95085.72;;;22.19;29.96
39301;BME280;25019;42.626;23.380;2022-07-18T08:21:10;95107.63;;;22.31;29.96
39301;BME280;25019;42.626;23.380;2022-07-18T08:23:36;94993.16;;;21.48;29.38
39301;BME280;25019;42.626;23.380;2022-07-18T08:26:02;94924.28;;;21.09;29.37
39301;BME280;25019;42.626;23.380;2022-07-18T08:28:27;95128.16;;;22.46;29.98
39301;BME280;25019;42.626;23.380;2022-07-18T08:30:53;95050.78;;;21.85;28.26
39301;BME280;25019;42.626;23.380;2022-07-18T08:33:19;95026.00;;;21.69;28.65
39301;BME280;25019;42.626;23.380;2022-07-18T08:35:44;95122.84;;;22.41;27.87
39301;BME280;25019;42.626;23.380;2022-07-18T08:38:10;95126.06;;;22.43;28.06
39301;BME280;25019;42.626;23.380;2022-07-18T08:40:37;95077.31;;;22.20;27.94
39301;BME280;25019;42.626;23.380;2022-07-18T08:43:03;95102.84;;;22.28;27.01
39301;BME280;25019;42.626;23.380;2022-07-18T08:45:30;95108.84;;;22.25;27.35
39301;BME280;25019;42.626;23.380;2022-07-18T08:47:55;95033.56;;;21.81;28.05
39301;BME280;25019;42.626;23.380;2022-07-18T08:50:22;95034.56;;;21.85;28.47
39301;BME280;25019;42.626;23.380;2022-07-18T08:52:49;95101.41;;;22.44;29.30
39301;BME280;25019;42.626;23.380;2022-07-18T08:55:15;95124.19;;;22.66;28.09
39301;BME280;25019;42.626;23.380;2022-07-18T08:57:41;95117.50;;;22.72;27.94
39301;BME280;25019;42.626;23.380;2022-07-18T09:00:09;95115.88;;;22.85;28.92
39301;BME280;25019;42.626;23.380;2022-07-18T09:02:35;94981.59;;;21.84;28.96
39301;BME280;25019;42.626;23.380;2022-07-18T09:05:03;95121.81;;;22.73;29.11
39301;BME280;25019;42.626;23.380;2022-07-18T09:07:31;95119.50;;;22.81;27.90
39301;BME280;25019;42.626;23.380;2022-07-18T09:09:59;95021.72;;;22.14;27.52
39301;BME280;25019;42.626;23.380;2022-07-18T09:12:26;94939.84;;;21.77;28.48
39301;BME280;25019;42.626;23.380;2022-07-18T09:14:53;94966.97;;;21.85;29.23
39301;BME280;25019;42.626;23.380;2022-07-18T09:17:27;95119.19;;;22.82;29.60
39301;BME280;25019;42.626;23.380;2022-07-18T09:22:25;95056.13;;;22.36;31.04
39301;BME280;25019;42.626;23.380;2022-07-18T09:27:44;95123.25;;;22.71;30.89
39301;BME280;25019;42.626;23.380;2022-07-18T09:30:23;95059.72;;;22.32;31.61
39301;BME280;25019;42.626;23.380;2022-07-18T09:35:25;95115.69;;;22.59;32.17
39301;BME280;25019;42.626;23.380;2022-07-18T09:38:01;95047.06;;;22.18;31.91
39301;BME280;25019;42.626;23.380;2022-07-18T09:40:30;95117.16;;;22.65;32.01
39301;BME280;25019;42.626;23.380;2022-07-18T09:42:59;95113.00;;;22.90;32.06
39301;BME280;25019;42.626;23.380;2022-07-18T09:48:01;95046.75;;;22.88;32.47
39301;BME280;25019;42.626;23.380;2022-07-18T09:53:15;95038.81;;;23.00;31.76
39301;BME280;25019;42.626;23.380;2022-07-18T09:55:43;95028.31;;;22.99;32.36
39301;BME280;25019;42.626;23.380;2022-07-18T09:58:10;95103.13;;;23.49;32.21
39301;BME280;25019;42.626;23.380;2022-07-18T10:00:38;95097.72;;;23.49;32.04
39301;BME280;25019;42.626;23.380;2022-07-18T10:03:06;95009.50;;;22.94;31.96
39301;BME280;25019;42.626;23.380;2022-07-18T10:05:33;94988.28;;;22.87;31.75
39301;BME280;25019;42.626;23.380;2022-07-18T10:08:01;95045.53;;;23.34;31.89
39301;BME280;25019;42.626;23.380;2022-07-18T10:10:29;94945.03;;;22.64;31.79
39301;BME280;25019;42.626;23.380;2022-07-18T10:12:58;95066.78;;;23.50;31.18
39301;BME280;25019;42.626;23.380;2022-07-18T10:15:26;95061.53;;;23.54;31.14
39301;BME280;25019;42.626;23.380;2022-07-18T10:17:53;95069.22;;;23.69;31.03
39301;BME280;25019;42.626;23.380;2022-07-18T10:20:32;95078.34;;;23.91;31.42
39301;BME280;25019;42.626;23.380;2022-07-18T10:23:08;95051.38;;;23.86;31.95
39301;BME280;25019;42.626;23.380;2022-07-18T10:25:34;95073.44;;;24.02;31.28
39301;BME280;25019;42.626;23.380;2022-07-18T10:28:07;94942.78;;;23.15;31.18
39301;BME280;25019;42.626;23.380;2022-07-18T10:30:38;95024.25;;;23.86;31.12
39301;BME280;25019;42.626;23.380;2022-07-18T10:36:03;95064.38;;;24.33;31.25
39301;BME280;25019;42.626;23.380;2022-07-18T10:38:29;95063.72;;;24.18;30.48
39301;BME280;25019;42.626;23.380;2022-07-18T10:41:06;95056.22;;;24.15;30.83
39301;BME280;25019;42.626;23.380;2022-07-18T10:43:34;95058.75;;;24.29;30.90
39301;BME280;25019;42.626;23.380;2022-07-18T10:46:01;94961.41;;;23.75;30.61
39301;BME280;25019;42.626;23.380;2022-07-18T10:51:06;95001.47;;;24.04;30.58
39301;BME280;25019;42.626;23.380;2022-07-18T10:59:18;95018.22;;;24.33;30.55
39301;BME280;25019;42.626;23.380;2022-07-18T11:01:48;94995.41;;;24.25;30.42
39301;BME280;25019;42.626;23.380;2022-07-18T11:04:28;95048.69;;;24.65;30.72
39301;BME280;25019;42.626;23.380;2022-07-18T11:07:03;94974.03;;;24.06;30.55
39301;BME280;25019;42.626;23.380;2022-07-18T11:09:40;95019.72;;;24.69;29.99
39301;BME280;25019;42.626;23.380;2022-07-18T11:18:03;95028.72;;;25.17;28.42
39301;BME280;25019;42.626;23.380;2022-07-18T11:20:37;94994.69;;;25.11;28.51
39301;BME280;25019;42.626;23.380;2022-07-18T11:23:23;95035.38;;;25.28;28.06
39301;BME280;25019;42.626;23.380;2022-07-18T11:25:54;95034.44;;;25.24;28.08
39301;BME280;25019;42.626;23.380;2022-07-18T11:28:20;95016.44;;;25.11;27.83
39301;BME280;25019;42.626;23.380;2022-07-18T11:30:59;95032.19;;;25.26;29.02
39301;BME280;25019;42.626;23.380;2022-07-18T11:33:29;95006.31;;;25.20;28.12
39301;BME280;25019;42.626;23.380;2022-07-18T11:36:12;95027.50;;;25.45;26.41
39301;BME280;25019;42.626;23.380;2022-07-18T11:38:46;94986.59;;;25.32;27.49
39301;BME280;25019;42.626;23.380;2022-07-18T11:41:12;94990.50;;;25.52;27.93
39301;BME280;25019;42.626;23.380;2022-07-18T11:43:38;94877.25;;;24.75;27.38
39301;BME280;25019;42.626;23.380;2022-07-18T11:46:09;95035.97;;;25.73;27.35
39301;BME280;25019;42.626;23.380;2022-07-18T11:48:36;94986.53;;;25.71;27.28
39301;BME280;25019;42.626;23.380;2022-07-18T11:51:08;95000.06;;;26.01;27.86
39301;BME280;25019;42.626;23.380;2022-07-18T11:53:34;94922.66;;;25.56;27.33
39301;BME280;25019;42.626;23.380;2022-07-18T11:56:04;94853.28;;;24.77;26.53
39301;BME280;25019;42.626;23.380;2022-07-18T11:58:36;94828.34;;;24.45;25.80
39301;BME280;25019;42.626;23.380;2022-07-18T12:01:03;94982.28;;;25.31;25.54
39301;BME280;25019;42.626;23.380;2022-07-18T12:03:29;94922.78;;;25.08;26.58
39301;BME280;25019;42.626;23.380;2022-07-18T12:05:55;95000.47;;;25.69;26.84
39301;BME280;25019;42.626;23.380;2022-07-18T12:08:44;95002.78;;;25.58;25.21
39301;BME280;25019;42.626;23.380;2022-07-18T12:11:33;94995.19;;;25.43;25.10
39301;BME280;25019;42.626;23.380;2022-07-18T12:14:01;94967.69;;;25.45;24.56
39301;BME280;25019;42.626;23.380;2022-07-18T12:19:12;94932.16;;;25.50;24.88
39301;BME280;25019;42.626;23.380;2022-07-18T12:27:11;94982.31;;;26.03;26.33
39301;BME280;25019;42.626;23.380;2022-07-18T12:30:10;94951.38;;;25.87;27.10
39301;BME280;25019;42.626;23.380;2022-07-18T12:35:33;94912.44;;;25.74;27.40
39301;BME280;25019;42.626;23.380;2022-07-18T12:38:14;94980.13;;;25.76;26.74
39301;BME280;25019;42.626;23.380;2022-07-18T12:40:52;94967.22;;;25.85;25.79
39301;BME280;25019;42.626;23.380;2022-07-18T12:43:34;94944.81;;;25.67;25.27
39301;BME280;25019;42.626;23.380;2022-07-18T12:46:04;94977.91;;;25.90;24.23
39301;BME280;25019;42.626;23.380;2022-07-18T12:48:31;94935.19;;;25.91;21.85
39301;BME280;25019;42.626;23.380;2022-07-18T12:51:08;94913.97;;;25.84;22.12
39301;BME280;25019;42.626;23.380;2022-07-18T12:53:37;94959.84;;;26.28;23.96
39301;BME280;25019;42.626;23.380;2022-07-18T12:56:04;94971.16;;;26.51;25.06
39301;BME280;25019;42.626;23.380;2022-07-18T12:58:30;94929.03;;;26.36;25.70
39301;BME280;25019;42.626;23.380;2022-07-18T13:00:56;94954.78;;;26.39;25.95
39301;BME280;25019;42.626;23.380;2022-07-18T13:03:22;94915.41;;;26.02;27.07
39301;BME280;25019;42.626;23.380;2022-07-18T13:05:48;94951.97;;;26.47;27.88
39301;BME280;25019;42.626;23.380;2022-07-18T13:08:14;94722.22;;;24.59;28.44
39301;BME280;25019;42.626;23.380;2022-07-18T13:10:40;94962.09;;;26.26;28.18
39301;BME280;25019;42.626;23.380;2022-07-18T13:13:08;94948.84;;;26.24;27.58
39301;BME280;25019;42.626;23.380;2022-07-18T13:15:34;94956.97;;;26.45;26.69
39301;BME280;25019;42.626;23.380;2022-07-18T13:18:01;94960.56;;;26.50;26.22
39301;BME280;25019;42.626;23.380;2022-07-18T13:20:27;94856.88;;;25.96;26.97
39301;BME280;25019;42.626;23.380;2022-07-18T13:22:56;94844.97;;;25.88;26.62
39301;BME280;25019;42.626;23.380;2022-07-18T13:25:22;94854.72;;;25.90;26.37
39301;BME280;25019;42.626;23.380;2022-07-18T13:27:48;94879.06;;;25.86;29.27
39301;BME280;25019;42.626;23.380;2022-07-18T13:30:15;94860.13;;;25.56;30.00
39301;BME280;25019;42.626;23.380;2022-07-18T13:32:41;94952.94;;;26.30;29.76
39301;BME280;25019;42.626;23.380;2022-07-18T13:35:11;94931.22;;;26.22;29.73